sensor_id;sensor_type;location;lat;lon;timestamp;P1;durP1;ratioP1;P2;durP2;ratioP2
32523;SDS011;18965;52.242;20.886;2023-05-20T00:01:04;73.97;;;15.13;;
32523;SDS011;18965;52.242;20.886;2023-05-20T00:03:29;45.38;;;15.55;;
32523;SDS011;18965;52.242;20.886;2023-05-20T00:05:55;49.38;;;23.77;;
32523;SDS011;18965;52.242;20.886;2023-05-20T00:08:21;36.80;;;11.13;;
32523;SDS011;18965;52.242;20.886;2023-05-20T00:10:46;38.42;;;19.95;;
32523;SDS011;18965;52.242;20.886;2023-05-20T00:13:12;20.20;;;7.78;;
32523;SDS011;18965;52.242;20.886;2023-05-20T00:15:38;27.63;;;13.95;;
32523;SDS011;18965;52.242;20.886;2023-05-20T00:18:03;47.22;;;10.70;;
32523;SDS011;18965;52.242;20.886;2023-05-20T00:20:29;52.00;;;15.48;;
32523;SDS011;18965;52.242;20.886;2023-05-20T00:22:56;21.10;;;12.82;;
32523;SDS011;18965;52.242;20.886;2023-05-20T00:25:21;19.95;;;8.68;;
32523;SDS011;18965;52.242;20.886;2023-05-20T00:27:47;19.83;;;10.95;;
32523;SDS011;18965;52.242;20.886;2023-05-20T00:30:13;17.10;;;9.60;;
32523;SDS011;18965;52.242;20.886;2023-05-20T00:32:38;28.95;;;12.40;;
32523;SDS011;18965;52.242;20.886;2023-05-20T00:35:05;73.55;;;25.02;;
32523;SDS011;18965;52.242;20.886;2023-05-20T00:37:31;19.17;;;8.65;;
32523;SDS011;18965;52.242;20.886;2023-05-20T00:39:56;18.92;;;6.97;;
32523;SDS011;18965;52.242;20.886;2023-05-20T00:42:23;22.10;;;8.38;;
32523;SDS011;18965;52.242;20.886;2023-05-20T00:44:50;213.57;;;92.15;;
32523;SDS011;18965;52.242;20.886;2023-05-20T00:47:16;180.80;;;86.10;;
32523;SDS011;18965;52.242;20.886;2023-05-20T00:49:44;164.98;;;83.07;;
32523;SDS011;18965;52.242;20.886;2023-05-20T00:52:10;177.25;;;83.90;;
32523;SDS011;18965;52.242;20.886;2023-05-20T00:54:37;130.73;;;76.60;;
32523;SDS011;18965;52.242;20.886;2023-05-20T00:57:04;159.20;;;83.03;;
32523;SDS011;18965;52.242;20.886;2023-05-20T00:59:32;141.40;;;79.00;;
32523;SDS011;18965;52.242;20.886;2023-05-20T01:01:59;149.40;;;79.20;;
32523;SDS011;18965;52.242;20.886;2023-05-20T01:04:26;152.50;;;80.43;;
32523;SDS011;18965;52.242;20.886;2023-05-20T01:06:52;148.57;;;80.03;;
32523;SDS011;18965;52.242;20.886;2023-05-20T01:09:19;153.18;;;80.78;;
32523;SDS011;18965;52.242;20.886;2023-05-20T01:12:29;145.48;;;78.22;;
32523;SDS011;18965;52.242;20.886;2023-05-20T01:14:46;150.27;;;77.72;;
32523;SDS011;18965;52.242;20.886;2023-05-20T01:17:33;149.75;;;78.75;;
32523;SDS011;18965;52.242;20.886;2023-05-20T01:20:06;166.93;;;83.32;;
32523;SDS011;18965;52.242;20.886;2023-05-20T01:22:37;196.88;;;89.50;;
32523;SDS011;18965;52.242;20.886;2023-05-20T01:25:10;165.55;;;82.93;;
32523;SDS011;18965;52.242;20.886;2023-05-20T01:27:36;154.10;;;80.43;;
32523;SDS011;18965;52.242;20.886;2023-05-20T01:30:02;183.00;;;85.28;;
32523;SDS011;18965;52.242;20.886;2023-05-20T01:32:31;162.65;;;82.72;;
32523;SDS011;18965;52.242;20.886;2023-05-20T01:35:03;219.30;;;90.65;;
32523;SDS011;18965;52.242;20.886;2023-05-20T01:37:30;219.48;;;90.72;;
32523;SDS011;18965;52.242;20.886;2023-05-20T01:39:56;184.98;;;86.07;;
32523;SDS011;18965;52.242;20.886;2023-05-20T01:42:22;210.32;;;89.38;;
32523;SDS011;18965;52.242;20.886;2023-05-20T01:44:51;248.30;;;95.15;;
32523;SDS011;18965;52.242;20.886;2023-05-20T01:47:16;197.27;;;88.05;;
32523;SDS011;18965;52.242;20.886;2023-05-20T01:49:42;215.93;;;89.80;;
32523;SDS011;18965;52.242;20.886;2023-05-20T01:52:10;167.93;;;82.60;;
32523;SDS011;18965;52.242;20.886;2023-05-20T01:54:36;229.23;;;91.45;;
32523;SDS011;18965;52.242;20.886;2023-05-20T01:57:02;26.38;;;6.13;;
32523;SDS011;18965;52.242;20.886;2023-05-20T01:59:28;38.08;;;9.55;;
32523;SDS011;18965;52.242;20.886;2023-05-20T02:01:53;14.15;;;5.50;;
32523;SDS011;18965;52.242;20.886;2023-05-20T02:04:19;23.20;;;6.72;;
32523;SDS011;18965;52.242;20.886;2023-05-20T02:06:46;11.40;;;5.78;;
32523;SDS011;18965;52.242;20.886;2023-05-20T02:09:13;11.57;;;5.53;;
32523;SDS011;18965;52.242;20.886;2023-05-20T02:11:39;42.88;;;21.08;;
32523;SDS011;18965;52.242;20.886;2023-05-20T02:14:04;69.40;;;29.48;;
32523;SDS011;18965;52.242;20.886;2023-05-20T02:16:30;38.00;;;10.20;;
32523;SDS011;18965;52.242;20.886;2023-05-20T02:18:56;16.10;;;12.50;;
32523;SDS011;18965;52.242;20.886;2023-05-20T02:21:22;10.07;;;5.38;;
32523;SDS011;18965;52.242;20.886;2023-05-20T02:23:49;28.42;;;7.78;;
32523;SDS011;18965;52.242;20.886;2023-05-20T02:26:15;23.20;;;6.25;;
32523;SDS011;18965;52.242;20.886;2023-05-20T02:28:41;36.22;;;25.33;;
32523;SDS011;18965;52.242;20.886;2023-05-20T02:31:10;38.17;;;8.37;;
32523;SDS011;18965;52.242;20.886;2023-05-20T02:33:37;33.17;;;7.68;;
32523;SDS011;18965;52.242;20.886;2023-05-20T02:36:03;21.00;;;17.52;;
32523;SDS011;18965;52.242;20.886;2023-05-20T02:38:28;28.00;;;9.18;;
32523;SDS011;18965;52.242;20.886;2023-05-20T02:40:56;35.35;;;11.35;;
32523;SDS011;18965;52.242;20.886;2023-05-20T02:43:23;14.35;;;6.28;;
32523;SDS011;18965;52.242;20.886;2023-05-20T02:45:50;18.45;;;5.55;;
32523;SDS011;18965;52.242;20.886;2023-05-20T02:48:15;13.27;;;9.18;;
32523;SDS011;18965;52.242;20.886;2023-05-20T02:50:41;46.28;;;9.95;;
32523;SDS011;18965;52.242;20.886;2023-05-20T02:53:08;179.00;;;86.20;;
32523;SDS011;18965;52.242;20.886;2023-05-20T02:55:34;201.60;;;89.63;;
32523;SDS011;18965;52.242;20.886;2023-05-20T02:58:00;173.82;;;83.75;;
32523;SDS011;18965;52.242;20.886;2023-05-20T03:00:26;197.90;;;86.20;;
32523;SDS011;18965;52.242;20.886;2023-05-20T03:02:55;168.40;;;82.90;;
32523;SDS011;18965;52.242;20.886;2023-05-20T03:05:21;154.93;;;80.32;;
32523;SDS011;18965;52.242;20.886;2023-05-20T03:07:47;192.25;;;85.15;;
32523;SDS011;18965;52.242;20.886;2023-05-20T03:10:13;165.30;;;82.47;;
32523;SDS011;18965;52.242;20.886;2023-05-20T03:12:40;158.60;;;80.35;;
32523;SDS011;18965;52.242;20.886;2023-05-20T03:15:05;189.75;;;85.72;;
32523;SDS011;18965;52.242;20.886;2023-05-20T03:17:31;196.93;;;87.20;;
32523;SDS011;18965;52.242;20.886;2023-05-20T03:19:57;181.88;;;86.80;;
32523;SDS011;18965;52.242;20.886;2023-05-20T03:22:23;179.60;;;84.45;;
32523;SDS011;18965;52.242;20.886;2023-05-20T03:24:49;170.80;;;84.72;;
32523;SDS011;18965;52.242;20.886;2023-05-20T03:27:16;197.57;;;87.93;;
32523;SDS011;18965;52.242;20.886;2023-05-20T03:29:42;215.70;;;90.90;;
32523;SDS011;18965;52.242;20.886;2023-05-20T03:32:08;185.65;;;86.32;;
32523;SDS011;18965;52.242;20.886;2023-05-20T03:34:34;238.38;;;94.82;;
32523;SDS011;18965;52.242;20.886;2023-05-20T03:36:59;213.25;;;91.03;;
32523;SDS011;18965;52.242;20.886;2023-05-20T03:39:25;193.40;;;88.13;;
32523;SDS011;18965;52.242;20.886;2023-05-20T03:41:51;176.40;;;85.15;;
32523;SDS011;18965;52.242;20.886;2023-05-20T03:44:17;213.07;;;90.45;;
32523;SDS011;18965;52.242;20.886;2023-05-20T03:46:43;244.95;;;94.10;;
32523;SDS011;18965;52.242;20.886;2023-05-20T03:49:09;233.98;;;92.75;;
32523;SDS011;18965;52.242;20.886;2023-05-20T03:51:35;247.50;;;96.70;;
32523;SDS011;18965;52.242;20.886;2023-05-20T03:54:00;235.30;;;95.75;;
32523;SDS011;18965;52.242;20.886;2023-05-20T03:56:26;252.27;;;96.25;;
32523;SDS011;18965;52.242;20.886;2023-05-20T03:58:52;292.77;;;100.63;;
32523;SDS011;18965;52.242;20.886;2023-05-20T04:01:17;285.13;;;99.47;;
32523;SDS011;18965;52.242;20.886;2023-05-20T04:03:43;294.58;;;101.55;;
32523;SDS011;18965;52.242;20.886;2023-05-20T04:06:09;262.45;;;98.38;;
32523;SDS011;18965;52.242;20.886;2023-05-20T04:08:35;259.08;;;98.13;;
32523;SDS011;18965;52.242;20.886;2023-05-20T04:11:01;211.07;;;91.20;;
32523;SDS011;18965;52.242;20.886;2023-05-20T04:13:27;214.95;;;91.50;;
32523;SDS011;18965;52.242;20.886;2023-05-20T04:15:53;209.93;;;90.30;;
32523;SDS011;18965;52.242;20.886;2023-05-20T04:18:18;215.77;;;92.72;;
32523;SDS011;18965;52.242;20.886;2023-05-20T04:20:45;221.88;;;93.78;;
32523;SDS011;18965;52.242;20.886;2023-05-20T04:23:11;206.80;;;90.03;;
32523;SDS011;18965;52.242;20.886;2023-05-20T04:25:37;172.98;;;86.40;;
32523;SDS011;18965;52.242;20.886;2023-05-20T04:28:03;148.57;;;82.35;;
32523;SDS011;18965;52.242;20.886;2023-05-20T04:30:29;156.38;;;83.32;;
32523;SDS011;18965;52.242;20.886;2023-05-20T04:32:57;147.82;;;83.07;;
32523;SDS011;18965;52.242;20.886;2023-05-20T04:35:23;140.30;;;81.07;;
32523;SDS011;18965;52.242;20.886;2023-05-20T04:37:50;139.45;;;81.90;;
32523;SDS011;18965;52.242;20.886;2023-05-20T04:40:18;177.82;;;88.93;;
32523;SDS011;18965;52.242;20.886;2023-05-20T04:42:44;105.25;;;75.18;;
32523;SDS011;18965;52.242;20.886;2023-05-20T04:45:10;105.93;;;74.93;;
32523;SDS011;18965;52.242;20.886;2023-05-20T04:47:36;150.68;;;80.50;;
32523;SDS011;18965;52.242;20.886;2023-05-20T04:50:04;97.25;;;71.55;;
32523;SDS011;18965;52.242;20.886;2023-05-20T04:52:32;103.00;;;74.25;;
32523;SDS011;18965;52.242;20.886;2023-05-20T04:54:58;112.00;;;73.63;;
32523;SDS011;18965;52.242;20.886;2023-05-20T04:57:26;131.05;;;79.75;;
32523;SDS011;18965;52.242;20.886;2023-05-20T04:59:51;37.03;;;8.07;;
32523;SDS011;18965;52.242;20.886;2023-05-20T05:02:17;42.72;;;23.27;;
32523;SDS011;18965;52.242;20.886;2023-05-20T05:04:43;47.75;;;23.92;;
32523;SDS011;18965;52.242;20.886;2023-05-20T05:07:08;74.57;;;37.92;;
32523;SDS011;18965;52.242;20.886;2023-05-20T05:09:35;154.82;;;91.70;;
32523;SDS011;18965;52.242;20.886;2023-05-20T05:12:00;61.15;;;41.78;;
32523;SDS011;18965;52.242;20.886;2023-05-20T05:14:26;39.17;;;13.55;;
32523;SDS011;18965;52.242;20.886;2023-05-20T05:16:52;46.90;;;10.05;;
32523;SDS011;18965;52.242;20.886;2023-05-20T05:19:18;27.02;;;6.93;;
32523;SDS011;18965;52.242;20.886;2023-05-20T05:21:43;21.10;;;6.10;;
32523;SDS011;18965;52.242;20.886;2023-05-20T05:24:09;18.88;;;5.70;;
32523;SDS011;18965;52.242;20.886;2023-05-20T05:26:35;36.53;;;6.63;;
32523;SDS011;18965;52.242;20.886;2023-05-20T05:29:00;20.10;;;5.60;;
32523;SDS011;18965;52.242;20.886;2023-05-20T05:31:26;26.15;;;6.15;;
32523;SDS011;18965;52.242;20.886;2023-05-20T05:33:52;57.55;;;9.32;;
32523;SDS011;18965;52.242;20.886;2023-05-20T05:36:17;35.60;;;6.85;;
32523;SDS011;18965;52.242;20.886;2023-05-20T05:38:43;22.58;;;5.75;;
32523;SDS011;18965;52.242;20.886;2023-05-20T05:41:09;22.98;;;5.90;;
32523;SDS011;18965;52.242;20.886;2023-05-20T05:43:35;25.48;;;6.28;;
32523;SDS011;18965;52.242;20.886;2023-05-20T05:46:00;29.80;;;6.70;;
32523;SDS011;18965;52.242;20.886;2023-05-20T05:48:26;52.72;;;8.40;;
32523;SDS011;18965;52.242;20.886;2023-05-20T05:50:52;36.83;;;6.75;;
32523;SDS011;18965;52.242;20.886;2023-05-20T05:53:17;12.95;;;4.70;;
32523;SDS011;18965;52.242;20.886;2023-05-20T05:55:47;19.73;;;5.03;;
32523;SDS011;18965;52.242;20.886;2023-05-20T05:58:13;24.33;;;4.93;;
32523;SDS011;18965;52.242;20.886;2023-05-20T06:00:39;40.83;;;6.63;;
32523;SDS011;18965;52.242;20.886;2023-05-20T06:03:04;28.05;;;6.18;;
32523;SDS011;18965;52.242;20.886;2023-05-20T06:05:30;25.48;;;5.90;;
32523;SDS011;18965;52.242;20.886;2023-05-20T06:07:56;23.25;;;5.40;;
32523;SDS011;18965;52.242;20.886;2023-05-20T06:10:22;16.17;;;4.35;;
32523;SDS011;18965;52.242;20.886;2023-05-20T06:12:47;31.15;;;5.72;;
32523;SDS011;18965;52.242;20.886;2023-05-20T06:15:13;17.27;;;5.20;;
32523;SDS011;18965;52.242;20.886;2023-05-20T06:17:40;26.05;;;5.97;;
32523;SDS011;18965;52.242;20.886;2023-05-20T06:20:05;28.83;;;6.65;;
32523;SDS011;18965;52.242;20.886;2023-05-20T06:22:31;40.45;;;7.90;;
32523;SDS011;18965;52.242;20.886;2023-05-20T06:24:57;32.75;;;6.70;;
32523;SDS011;18965;52.242;20.886;2023-05-20T06:27:25;34.80;;;6.18;;
32523;SDS011;18965;52.242;20.886;2023-05-20T06:29:51;39.45;;;6.97;;
32523;SDS011;18965;52.242;20.886;2023-05-20T06:32:18;46.13;;;7.45;;
32523;SDS011;18965;52.242;20.886;2023-05-20T06:34:44;35.55;;;6.55;;
32523;SDS011;18965;52.242;20.886;2023-05-20T06:37:10;35.78;;;7.15;;
32523;SDS011;18965;52.242;20.886;2023-05-20T06:39:36;18.17;;;5.05;;
32523;SDS011;18965;52.242;20.886;2023-05-20T06:42:02;29.45;;;5.80;;
32523;SDS011;18965;52.242;20.886;2023-05-20T06:44:28;22.30;;;5.72;;
32523;SDS011;18965;52.242;20.886;2023-05-20T06:46:54;17.23;;;5.22;;
32523;SDS011;18965;52.242;20.886;2023-05-20T06:49:20;36.58;;;6.68;;
32523;SDS011;18965;52.242;20.886;2023-05-20T06:51:47;16.15;;;5.18;;
32523;SDS011;18965;52.242;20.886;2023-05-20T06:54:12;18.10;;;4.78;;
32523;SDS011;18965;52.242;20.886;2023-05-20T06:56:38;19.52;;;5.15;;
32523;SDS011;18965;52.242;20.886;2023-05-20T06:59:04;24.75;;;5.72;;
32523;SDS011;18965;52.242;20.886;2023-05-20T07:01:31;26.70;;;5.63;;
32523;SDS011;18965;52.242;20.886;2023-05-20T07:03:57;36.92;;;6.95;;
32523;SDS011;18965;52.242;20.886;2023-05-20T07:06:23;28.35;;;6.22;;
32523;SDS011;18965;52.242;20.886;2023-05-20T07:08:49;48.58;;;7.57;;
32523;SDS011;18965;52.242;20.886;2023-05-20T07:11:21;25.92;;;5.93;;
32523;SDS011;18965;52.242;20.886;2023-05-20T07:13:51;16.85;;;5.22;;
32523;SDS011;18965;52.242;20.886;2023-05-20T07:16:24;30.42;;;5.95;;
32523;SDS011;18965;52.242;20.886;2023-05-20T07:18:51;19.58;;;4.82;;
32523;SDS011;18965;52.242;20.886;2023-05-20T07:21:26;21.45;;;5.35;;
32523;SDS011;18965;52.242;20.886;2023-05-20T07:24:00;30.08;;;6.10;;
32523;SDS011;18965;52.242;20.886;2023-05-20T07:26:27;16.45;;;4.75;;
32523;SDS011;18965;52.242;20.886;2023-05-20T07:28:54;16.80;;;4.95;;
32523;SDS011;18965;52.242;20.886;2023-05-20T07:31:20;31.27;;;6.38;;
32523;SDS011;18965;52.242;20.886;2023-05-20T07:33:46;24.33;;;5.60;;
32523;SDS011;18965;52.242;20.886;2023-05-20T07:36:12;30.40;;;6.20;;
32523;SDS011;18965;52.242;20.886;2023-05-20T07:38:38;52.83;;;8.50;;
32523;SDS011;18965;52.242;20.886;2023-05-20T07:41:08;31.95;;;6.38;;
32523;SDS011;18965;52.242;20.886;2023-05-20T07:43:38;28.50;;;6.38;;
32523;SDS011;18965;52.242;20.886;2023-05-20T07:46:04;25.37;;;5.60;;
32523;SDS011;18965;52.242;20.886;2023-05-20T07:48:30;31.85;;;6.13;;
32523;SDS011;18965;52.242;20.886;2023-05-20T07:50:56;30.08;;;5.97;;
32523;SDS011;18965;52.242;20.886;2023-05-20T07:53:24;13.63;;;4.32;;
32523;SDS011;18965;52.242;20.886;2023-05-20T07:55:52;24.65;;;5.60;;
32523;SDS011;18965;52.242;20.886;2023-05-20T07:58:19;18.08;;;5.00;;
32523;SDS011;18965;52.242;20.886;2023-05-20T08:00:45;18.70;;;4.47;;
32523;SDS011;18965;52.242;20.886;2023-05-20T08:03:18;13.30;;;4.40;;
32523;SDS011;18965;52.242;20.886;2023-05-20T08:06:03;23.15;;;5.18;;
32523;SDS011;18965;52.242;20.886;2023-05-20T08:09:24;61.67;;;8.43;;
32523;SDS011;18965;52.242;20.886;2023-05-20T08:12:10;24.20;;;5.28;;
32523;SDS011;18965;52.242;20.886;2023-05-20T08:14:41;13.68;;;3.72;;
32523;SDS011;18965;52.242;20.886;2023-05-20T08:17:35;15.75;;;4.25;;
32523;SDS011;18965;52.242;20.886;2023-05-20T08:20:31;24.05;;;5.65;;
32523;SDS011;18965;52.242;20.886;2023-05-20T08:28:30;32.50;;;6.10;;
32523;SDS011;18965;52.242;20.886;2023-05-20T08:30:56;21.85;;;5.30;;
32523;SDS011;18965;52.242;20.886;2023-05-20T08:33:26;12.90;;;3.97;;
32523;SDS011;18965;52.242;20.886;2023-05-20T08:35:59;15.27;;;4.22;;
32523;SDS011;18965;52.242;20.886;2023-05-20T08:38:30;12.45;;;4.10;;
32523;SDS011;18965;52.242;20.886;2023-05-20T08:40:56;14.80;;;4.32;;
32523;SDS011;18965;52.242;20.886;2023-05-20T08:43:25;13.30;;;4.28;;
32523;SDS011;18965;52.242;20.886;2023-05-20T08:45:54;37.35;;;6.80;;
32523;SDS011;18965;52.242;20.886;2023-05-20T08:48:26;14.05;;;4.43;;
32523;SDS011;18965;52.242;20.886;2023-05-20T08:50:56;31.90;;;6.40;;
32523;SDS011;18965;52.242;20.886;2023-05-20T08:53:29;17.85;;;4.88;;
32523;SDS011;18965;52.242;20.886;2023-05-20T08:55:59;23.63;;;5.85;;
32523;SDS011;18965;52.242;20.886;2023-05-20T08:58:33;19.40;;;4.72;;
32523;SDS011;18965;52.242;20.886;2023-05-20T09:01:08;5.07;;;3.55;;
32523;SDS011;18965;52.242;20.886;2023-05-20T09:03:39;6.78;;;3.70;;
32523;SDS011;18965;52.242;20.886;2023-05-20T09:06:15;9.43;;;3.88;;
32523;SDS011;18965;52.242;20.886;2023-05-20T09:08:52;7.05;;;4.03;;
32523;SDS011;18965;52.242;20.886;2023-05-20T09:11:32;8.18;;;4.00;;
32523;SDS011;18965;52.242;20.886;2023-05-20T09:14:01;5.25;;;3.47;;
32523;SDS011;18965;52.242;20.886;2023-05-20T09:16:38;10.57;;;4.30;;
32523;SDS011;18965;52.242;20.886;2023-05-20T09:19:59;5.05;;;3.38;;
32523;SDS011;18965;52.242;20.886;2023-05-20T09:22:28;6.85;;;3.90;;
32523;SDS011;18965;52.242;20.886;2023-05-20T09:25:01;8.25;;;3.88;;
32523;SDS011;18965;52.242;20.886;2023-05-20T09:27:27;7.60;;;3.63;;
32523;SDS011;18965;52.242;20.886;2023-05-20T09:30:01;7.10;;;3.80;;
32523;SDS011;18965;52.242;20.886;2023-05-20T09:32:38;8.10;;;3.95;;
32523;SDS011;18965;52.242;20.886;2023-05-20T09:35:23;7.03;;;3.90;;
32523;SDS011;18965;52.242;20.886;2023-05-20T09:37:55;12.65;;;4.13;;
32523;SDS011;18965;52.242;20.886;2023-05-20T09:40:28;5.90;;;3.97;;
32523;SDS011;18965;52.242;20.886;2023-05-20T09:43:03;8.40;;;4.35;;
32523;SDS011;18965;52.242;20.886;2023-05-20T09:45:38;10.27;;;4.03;;
32523;SDS011;18965;52.242;20.886;2023-05-20T09:48:48;5.18;;;3.65;;
32523;SDS011;18965;52.242;20.886;2023-05-20T09:51:19;7.72;;;3.67;;
32523;SDS011;18965;52.242;20.886;2023-05-20T09:53:57;6.40;;;3.97;;
32523;SDS011;18965;52.242;20.886;2023-05-20T09:56:27;8.63;;;4.72;;
32523;SDS011;18965;52.242;20.886;2023-05-20T09:58:59;11.07;;;4.65;;
32523;SDS011;18965;52.242;20.886;2023-05-20T10:01:29;9.27;;;4.50;;
32523;SDS011;18965;52.242;20.886;2023-05-20T10:04:02;6.40;;;4.50;;
32523;SDS011;18965;52.242;20.886;2023-05-20T10:06:36;8.70;;;4.47;;
32523;SDS011;18965;52.242;20.886;2023-05-20T10:24:04;6.93;;;4.18;;
32523;SDS011;18965;52.242;20.886;2023-05-20T10:26:41;12.00;;;4.90;;
32523;SDS011;18965;52.242;20.886;2023-05-20T10:29:25;9.18;;;5.05;;
32523;SDS011;18965;52.242;20.886;2023-05-20T10:32:24;5.80;;;4.20;;
32523;SDS011;18965;52.242;20.886;2023-05-20T10:35:03;10.68;;;4.72;;
32523;SDS011;18965;52.242;20.886;2023-05-20T10:37:44;9.38;;;4.97;;
32523;SDS011;18965;52.242;20.886;2023-05-20T10:40:34;12.27;;;5.18;;
32523;SDS011;18965;52.242;20.886;2023-05-20T10:46:16;15.05;;;5.53;;
32523;SDS011;18965;52.242;20.886;2023-05-20T10:49:18;10.32;;;4.55;;
32523;SDS011;18965;52.242;20.886;2023-05-20T10:51:53;6.07;;;4.10;;
32523;SDS011;18965;52.242;20.886;2023-05-20T10:57:28;10.68;;;4.82;;
32523;SDS011;18965;52.242;20.886;2023-05-20T11:00:01;9.52;;;4.78;;
32523;SDS011;18965;52.242;20.886;2023-05-20T11:02:43;13.57;;;4.97;;
32523;SDS011;18965;52.242;20.886;2023-05-20T11:05:11;7.88;;;4.88;;
32523;SDS011;18965;52.242;20.886;2023-05-20T11:07:39;12.57;;;4.97;;
32523;SDS011;18965;52.242;20.886;2023-05-20T11:10:07;6.53;;;4.18;;
32523;SDS011;18965;52.242;20.886;2023-05-20T11:12:36;7.13;;;4.75;;
32523;SDS011;18965;52.242;20.886;2023-05-20T11:15:03;7.60;;;4.70;;
32523;SDS011;18965;52.242;20.886;2023-05-20T11:17:33;8.65;;;4.50;;
32523;SDS011;18965;52.242;20.886;2023-05-20T11:20:05;6.63;;;4.70;;
32523;SDS011;18965;52.242;20.886;2023-05-20T11:22:41;8.32;;;4.72;;
32523;SDS011;18965;52.242;20.886;2023-05-20T11:25:13;9.30;;;5.22;;
32523;SDS011;18965;52.242;20.886;2023-05-20T11:27:41;8.18;;;4.70;;
32523;SDS011;18965;52.242;20.886;2023-05-20T11:30:08;8.48;;;4.55;;
32523;SDS011;18965;52.242;20.886;2023-05-20T11:32:58;8.82;;;4.38;;
32523;SDS011;18965;52.242;20.886;2023-05-20T11:35:27;8.55;;;4.90;;
32523;SDS011;18965;52.242;20.886;2023-05-20T11:37:57;6.22;;;4.43;;
32523;SDS011;18965;52.242;20.886;2023-05-20T11:40:32;5.50;;;4.20;;
32523;SDS011;18965;52.242;20.886;2023-05-20T11:43:00;6.35;;;4.63;;
32523;SDS011;18965;52.242;20.886;2023-05-20T11:45:40;11.45;;;4.75;;
32523;SDS011;18965;52.242;20.886;2023-05-20T11:48:10;8.90;;;4.40;;
32523;SDS011;18965;52.242;20.886;2023-05-20T11:54:04;8.43;;;4.60;;
32523;SDS011;18965;52.242;20.886;2023-05-20T11:56:33;9.02;;;5.22;;
32523;SDS011;18965;52.242;20.886;2023-05-20T11:59:02;8.07;;;4.50;;
32523;SDS011;18965;52.242;20.886;2023-05-20T12:01:48;12.68;;;4.93;;
32523;SDS011;18965;52.242;20.886;2023-05-20T12:04:18;7.63;;;4.75;;
32523;SDS011;18965;52.242;20.886;2023-05-20T12:07:04;9.85;;;4.93;;
32523;SDS011;18965;52.242;20.886;2023-05-20T12:09:41;9.75;;;4.82;;
32523;SDS011;18965;52.242;20.886;2023-05-20T12:12:11;11.85;;;5.15;;
32523;SDS011;18965;52.242;20.886;2023-05-20T12:14:43;7.88;;;4.68;;
32523;SDS011;18965;52.242;20.886;2023-05-20T12:17:13;8.30;;;4.75;;
32523;SDS011;18965;52.242;20.886;2023-05-20T12:19:58;8.60;;;5.07;;
32523;SDS011;18965;52.242;20.886;2023-05-20T12:22:31;6.63;;;5.20;;
32523;SDS011;18965;52.242;20.886;2023-05-20T12:25:01;10.30;;;5.15;;
32523;SDS011;18965;52.242;20.886;2023-05-20T12:27:41;8.48;;;5.13;;
32523;SDS011;18965;52.242;20.886;2023-05-20T12:30:16;7.22;;;4.80;;
32523;SDS011;18965;52.242;20.886;2023-05-20T12:32:48;13.57;;;5.30;;
32523;SDS011;18965;52.242;20.886;2023-05-20T12:35:16;9.77;;;4.80;;
32523;SDS011;18965;52.242;20.886;2023-05-20T12:38:09;6.10;;;4.63;;
32523;SDS011;18965;52.242;20.886;2023-05-20T12:40:43;7.28;;;4.90;;
32523;SDS011;18965;52.242;20.886;2023-05-20T12:43:25;9.15;;;4.93;;
32523;SDS011;18965;52.242;20.886;2023-05-20T12:46:14;12.02;;;5.47;;
32523;SDS011;18965;52.242;20.886;2023-05-20T12:48:51;8.80;;;4.85;;
32523;SDS011;18965;52.242;20.886;2023-05-20T12:51:29;7.82;;;4.85;;
32523;SDS011;18965;52.242;20.886;2023-05-20T12:54:00;11.98;;;5.00;;
32523;SDS011;18965;52.242;20.886;2023-05-20T12:56:26;10.27;;;5.00;;
32523;SDS011;18965;52.242;20.886;2023-05-20T12:58:55;5.75;;;4.57;;
32523;SDS011;18965;52.242;20.886;2023-05-20T13:01:27;11.43;;;5.13;;
32523;SDS011;18965;52.242;20.886;2023-05-20T13:04:06;9.45;;;5.63;;
32523;SDS011;18965;52.242;20.886;2023-05-20T13:06:37;7.10;;;4.63;;
32523;SDS011;18965;52.242;20.886;2023-05-20T13:09:05;9.65;;;5.10;;
32523;SDS011;18965;52.242;20.886;2023-05-20T13:11:37;9.65;;;5.07;;
32523;SDS011;18965;52.242;20.886;2023-05-20T13:16:32;9.10;;;5.47;;
32523;SDS011;18965;52.242;20.886;2023-05-20T13:19:06;6.38;;;4.57;;
32523;SDS011;18965;52.242;20.886;2023-05-20T13:21:41;7.43;;;4.85;;
32523;SDS011;18965;52.242;20.886;2023-05-20T13:24:14;11.25;;;5.38;;
32523;SDS011;18965;52.242;20.886;2023-05-20T13:26:46;11.73;;;5.30;;
32523;SDS011;18965;52.242;20.886;2023-05-20T13:29:14;11.48;;;5.78;;
32523;SDS011;18965;52.242;20.886;2023-05-20T13:31:47;7.55;;;4.80;;
32523;SDS011;18965;52.242;20.886;2023-05-20T13:34:29;11.90;;;5.22;;
32523;SDS011;18965;52.242;20.886;2023-05-20T13:37:03;9.88;;;5.47;;
32523;SDS011;18965;52.242;20.886;2023-05-20T13:39:46;7.53;;;5.07;;
32523;SDS011;18965;52.242;20.886;2023-05-20T13:42:24;6.67;;;4.73;;
32523;SDS011;18965;52.242;20.886;2023-05-20T13:44:56;7.05;;;5.18;;
32523;SDS011;18965;52.242;20.886;2023-05-20T13:47:28;12.98;;;5.40;;
32523;SDS011;18965;52.242;20.886;2023-05-20T13:50:06;9.13;;;5.18;;
32523;SDS011;18965;52.242;20.886;2023-05-20T13:55:40;7.22;;;5.05;;
32523;SDS011;18965;52.242;20.886;2023-05-20T13:58:09;9.32;;;4.95;;
32523;SDS011;18965;52.242;20.886;2023-05-20T14:00:37;14.57;;;5.65;;
32523;SDS011;18965;52.242;20.886;2023-05-20T14:03:06;5.38;;;4.72;;
32523;SDS011;18965;52.242;20.886;2023-05-20T14:05:34;8.25;;;4.93;;
32523;SDS011;18965;52.242;20.886;2023-05-20T14:08:05;7.78;;;5.20;;
32523;SDS011;18965;52.242;20.886;2023-05-20T14:10:37;8.75;;;5.13;;
32523;SDS011;18965;52.242;20.886;2023-05-20T14:17:22;11.20;;;5.18;;
32523;SDS011;18965;52.242;20.886;2023-05-20T14:20:04;14.20;;;5.57;;
32523;SDS011;18965;52.242;20.886;2023-05-20T14:22:53;9.02;;;5.22;;
32523;SDS011;18965;52.242;20.886;2023-05-20T14:25:27;13.43;;;5.43;;
32523;SDS011;18965;52.242;20.886;2023-05-20T14:27:59;11.02;;;5.00;;
32523;SDS011;18965;52.242;20.886;2023-05-20T14:30:30;6.18;;;5.05;;
32523;SDS011;18965;52.242;20.886;2023-05-20T14:33:06;10.10;;;4.95;;
32523;SDS011;18965;52.242;20.886;2023-05-20T14:35:50;8.60;;;4.80;;
32523;SDS011;18965;52.242;20.886;2023-05-20T14:38:53;7.32;;;5.25;;
32523;SDS011;18965;52.242;20.886;2023-05-20T14:41:25;9.30;;;5.63;;
32523;SDS011;18965;52.242;20.886;2023-05-20T14:43:54;8.23;;;5.22;;
32523;SDS011;18965;52.242;20.886;2023-05-20T14:46:28;21.20;;;5.93;;
32523;SDS011;18965;52.242;20.886;2023-05-20T14:49:01;8.85;;;5.00;;
32523;SDS011;18965;52.242;20.886;2023-05-20T14:52:04;8.73;;;5.03;;
32523;SDS011;18965;52.242;20.886;2023-05-20T14:54:50;7.57;;;4.50;;
32523;SDS011;18965;52.242;20.886;2023-05-20T14:57:31;6.90;;;4.88;;
32523;SDS011;18965;52.242;20.886;2023-05-20T15:00:03;7.82;;;4.80;;
32523;SDS011;18965;52.242;20.886;2023-05-20T15:02:53;15.98;;;5.53;;
32523;SDS011;18965;52.242;20.886;2023-05-20T15:05:25;12.95;;;5.60;;
32523;SDS011;18965;52.242;20.886;2023-05-20T15:07:56;10.77;;;5.75;;
32523;SDS011;18965;52.242;20.886;2023-05-20T15:10:40;10.63;;;5.03;;
32523;SDS011;18965;52.242;20.886;2023-05-20T15:13:20;16.80;;;5.47;;
32523;SDS011;18965;52.242;20.886;2023-05-20T15:15:58;12.43;;;5.30;;
32523;SDS011;18965;52.242;20.886;2023-05-20T15:18:55;7.65;;;4.82;;